sensor_id;sensor_type;location;lat;lon;timestamp;pressure;altitude;pressure_sealevel;temperature;humidity
21129;BME280;10722;51.910;8.352;2022-10-16T00:01:12;100378.94;;;13.63;100.00
21129;BME280;10722;51.910;8.352;2022-10-16T00:03:59;100377.19;;;13.61;100.00
21129;BME280;10722;51.910;8.352;2022-10-16T00:06:46;100380.66;;;13.66;100.00
21129;BME280;10722;51.910;8.352;2022-10-16T00:09:31;100378.06;;;13.67;100.00
21129;BME280;10722;51.910;8.352;2022-10-16T00:12:17;100364.22;;;13.68;100.00
21129;BME280;10722;51.910;8.352;2022-10-16T00:15:02;100374.59;;;13.72;100.00
21129;BME280;10722;51.910;8.352;2022-10-16T00:17:47;100371.13;;;13.73;100.00
21129;BME280;10722;51.910;8.352;2022-10-16T00:20:36;100370.25;;;13.78;100.00
21129;BME280;10722;51.910;8.352;2022-10-16T00:23:21;100375.47;;;13.72;100.00
21129;BME280;10722;51.910;8.352;2022-10-16T00:26:10;100380.66;;;13.67;100.00
21129;BME280;10722;51.910;8.352;2022-10-16T00:28:55;100372.84;;;13.60;100.00
21129;BME280;10722;51.910;8.352;2022-10-16T00:31:41;100389.31;;;13.65;100.00
21129;BME280;10722;51.910;8.352;2022-10-16T00:34:26;100379.78;;;13.70;100.00
21129;BME280;10722;51.910;8.352;2022-10-16T00:37:11;100369.41;;;13.68;100.00
21129;BME280;10722;51.910;8.352;2022-10-16T00:39:56;100364.19;;;13.65;100.00
21129;BME280;10722;51.910;8.352;2022-10-16T00:42:41;100366.81;;;13.61;100.00
21129;BME280;10722;51.910;8.352;2022-10-16T00:45:26;100368.53;;;13.56;100.00
21129;BME280;10722;51.910;8.352;2022-10-16T00:48:12;100385.00;;;13.52;100.00
21129;BME280;10722;51.910;8.352;2022-10-16T00:50:58;100385.84;;;13.48;100.00
21129;BME280;10722;51.910;8.352;2022-10-16T00:53:44;100373.75;;;13.43;100.00
21129;BME280;10722;51.910;8.352;2022-10-16T00:56:29;100379.78;;;13.45;100.00
21129;BME280;10722;51.910;8.352;2022-10-16T01:02:08;100387.59;;;13.33;100.00
21129;BME280;10722;51.910;8.352;2022-10-16T01:04:53;100391.91;;;13.33;100.00
21129;BME280;10722;51.910;8.352;2022-10-16T01:10:41;100411.84;;;13.29;100.00
21129;BME280;10722;51.910;8.352;2022-10-16T01:13:35;100403.19;;;13.30;100.00
21129;BME280;10722;51.910;8.352;2022-10-16T01:16:34;100405.78;;;13.33;100.00
21129;BME280;10722;51.910;8.352;2022-10-16T01:22:10;100404.03;;;13.37;100.00
21129;BME280;10722;51.910;8.352;2022-10-16T01:24:57;100403.19;;;13.36;100.00
21129;BME280;10722;51.910;8.352;2022-10-16T01:27:47;100408.38;;;13.30;100.00
21129;BME280;10722;51.910;8.352;2022-10-16T01:30:33;100411.78;;;13.24;100.00
21129;BME280;10722;51.910;8.352;2022-10-16T01:33:24;100407.44;;;13.20;100.00
21129;BME280;10722;51.910;8.352;2022-10-16T01:36:15;100422.16;;;13.14;100.00
21129;BME280;10722;51.910;8.352;2022-10-16T01:39:02;100429.06;;;13.15;100.00
21129;BME280;10722;51.910;8.352;2022-10-16T01:41:59;100420.44;;;13.19;100.00
21129;BME280;10722;51.910;8.352;2022-10-16T01:44:47;100429.06;;;13.12;100.00
21129;BME280;10722;51.910;8.352;2022-10-16T01:47:35;100426.50;;;13.18;100.00
21129;BME280;10722;51.910;8.352;2022-10-16T01:50:21;100416.09;;;13.19;100.00
21129;BME280;10722;51.910;8.352;2022-10-16T01:53:09;100420.41;;;13.17;100.00
21129;BME280;10722;51.910;8.352;2022-10-16T01:55:58;100424.75;;;13.23;100.00
21129;BME280;10722;51.910;8.352;2022-10-16T01:58:53;100413.53;;;13.21;100.00
21129;BME280;10722;51.910;8.352;2022-10-16T02:01:43;100410.91;;;13.19;100.00
21129;BME280;10722;51.910;8.352;2022-10-16T02:04:43;100419.56;;;13.12;100.00
21129;BME280;10722;51.910;8.352;2022-10-16T02:07:29;100414.31;;;12.97;100.00
21129;BME280;10722;51.910;8.352;2022-10-16T02:10:15;100411.72;;;12.92;100.00
21129;BME280;10722;51.910;8.352;2022-10-16T02:13:52;100422.94;;;12.88;100.00
21129;BME280;10722;51.910;8.352;2022-10-16T02:16:11;100422.91;;;12.81;100.00
21129;BME280;10722;51.910;8.352;2022-10-16T02:18:56;100427.25;;;12.75;100.00
21129;BME280;10722;51.910;8.352;2022-10-16T02:21:57;100432.44;;;12.75;100.00
21129;BME280;10722;51.910;8.352;2022-10-16T02:24:59;100425.50;;;12.73;100.00
21129;BME280;10722;51.910;8.352;2022-10-16T02:27:57;100418.59;;;12.83;100.00
21129;BME280;10722;51.910;8.352;2022-10-16T02:30:56;100416.88;;;12.83;100.00
21129;BME280;10722;51.910;8.352;2022-10-16T02:33:44;100428.16;;;12.88;100.00
21129;BME280;10722;51.910;8.352;2022-10-16T02:36:32;100429.03;;;12.90;100.00
21129;BME280;10722;51.910;8.352;2022-10-16T02:39:19;100428.16;;;12.90;100.00
21129;BME280;10722;51.910;8.352;2022-10-16T02:42:10;100419.47;;;12.89;100.00
21129;BME280;10722;51.910;8.352;2022-10-16T02:44:55;100423.81;;;12.92;100.00
21129;BME280;10722;51.910;8.352;2022-10-16T02:47:40;100429.91;;;12.98;100.00
21129;BME280;10722;51.910;8.352;2022-10-16T02:50:25;100431.66;;;13.01;100.00
21129;BME280;10722;51.910;8.352;2022-10-16T02:53:10;100423.00;;;13.02;100.00
21129;BME280;10722;51.910;8.352;2022-10-16T02:55:55;100429.91;;;13.03;100.00
21129;BME280;10722;51.910;8.352;2022-10-16T02:58:39;100431.66;;;13.04;100.00
21129;BME280;10722;51.910;8.352;2022-10-16T03:01:24;100431.66;;;13.02;100.00
21129;BME280;10722;51.910;8.352;2022-10-16T03:04:10;100428.22;;;13.07;100.00
21129;BME280;10722;51.910;8.352;2022-10-16T03:06:56;100433.38;;;13.00;100.00
21129;BME280;10722;51.910;8.352;2022-10-16T03:09:41;100423.00;;;13.02;100.00
21129;BME280;10722;51.910;8.352;2022-10-16T03:12:28;100426.47;;;13.01;100.00
21129;BME280;10722;51.910;8.352;2022-10-16T03:15:13;100429.94;;;13.01;100.00
21129;BME280;10722;51.910;8.352;2022-10-16T03:17:58;100431.66;;;13.02;100.00
21129;BME280;10722;51.910;8.352;2022-10-16T03:20:44;100429.03;;;12.93;100.00
21129;BME280;10722;51.910;8.352;2022-10-16T03:23:29;100427.31;;;12.92;100.00
21129;BME280;10722;51.910;8.352;2022-10-16T03:26:14;100429.03;;;12.90;100.00
21129;BME280;10722;51.910;8.352;2022-10-16T03:28:59;100415.16;;;12.85;100.00
21129;BME280;10722;51.910;8.352;2022-10-16T03:31:44;100422.09;;;12.85;100.00
21129;BME280;10722;51.910;8.352;2022-10-16T03:34:29;100417.72;;;12.81;100.00
21129;BME280;10722;51.910;8.352;2022-10-16T03:37:14;100426.41;;;12.86;100.00
21129;BME280;10722;51.910;8.352;2022-10-16T03:40:00;100434.19;;;12.86;100.00
21129;BME280;10722;51.910;8.352;2022-10-16T03:42:45;100425.53;;;12.84;100.00
21129;BME280;10722;51.910;8.352;2022-10-16T03:45:30;100429.00;;;12.86;100.00
21129;BME280;10722;51.910;8.352;2022-10-16T03:48:15;100435.06;;;12.91;100.00
21129;BME280;10722;51.910;8.352;2022-10-16T03:51:00;100435.06;;;12.88;100.00
21129;BME280;10722;51.910;8.352;2022-10-16T03:53:45;100432.47;;;12.89;100.00
21129;BME280;10722;51.910;8.352;2022-10-16T03:56:30;100434.22;;;12.92;100.00
21129;BME280;10722;51.910;8.352;2022-10-16T03:59:15;100424.72;;;12.92;100.00
21129;BME280;10722;51.910;8.352;2022-10-16T04:02:00;100429.03;;;12.96;100.00
21129;BME280;10722;51.910;8.352;2022-10-16T04:04:45;100423.84;;;12.99;100.00
21129;BME280;10722;51.910;8.352;2022-10-16T04:07:30;100416.06;;;12.98;100.00
21129;BME280;10722;51.910;8.352;2022-10-16T04:10:15;100422.16;;;13.05;100.00
21129;BME280;10722;51.910;8.352;2022-10-16T04:13:00;100422.16;;;13.08;100.00
21129;BME280;10722;51.910;8.352;2022-10-16T04:15:45;100416.09;;;13.10;100.00
21129;BME280;10722;51.910;8.352;2022-10-16T04:18:30;100419.56;;;13.12;100.00
21129;BME280;10722;51.910;8.352;2022-10-16T04:21:16;100424.78;;;13.18;100.00
21129;BME280;10722;51.910;8.352;2022-10-16T04:24:00;100426.50;;;13.18;100.00
21129;BME280;10722;51.910;8.352;2022-10-16T04:26:45;100430.81;;;13.16;100.00
21129;BME280;10722;51.910;8.352;2022-10-16T04:29:31;100436.03;;;13.16;100.00
21129;BME280;10722;51.910;8.352;2022-10-16T04:32:16;100446.41;;;13.19;100.00
21129;BME280;10722;51.910;8.352;2022-10-16T04:35:00;100445.56;;;13.18;100.00
21129;BME280;10722;51.910;8.352;2022-10-16T04:37:46;100450.75;;;13.23;100.00
21129;BME280;10722;51.910;8.352;2022-10-16T04:40:31;100450.75;;;13.21;100.00
21129;BME280;10722;51.910;8.352;2022-10-16T04:43:17;100442.97;;;13.24;100.00
21129;BME280;10722;51.910;8.352;2022-10-16T04:46:02;100438.63;;;13.25;100.00
21129;BME280;10722;51.910;8.352;2022-10-16T04:48:47;100451.63;;;13.25;100.00
21129;BME280;10722;51.910;8.352;2022-10-16T04:51:33;100458.56;;;13.26;100.00
21129;BME280;10722;51.910;8.352;2022-10-16T04:54:18;100463.75;;;13.24;100.00
21129;BME280;10722;51.910;8.352;2022-10-16T04:57:02;100468.97;;;13.26;100.00
21129;BME280;10722;51.910;8.352;2022-10-16T04:59:48;100459.41;;;13.25;100.00
21129;BME280;10722;51.910;8.352;2022-10-16T05:02:34;100458.53;;;13.23;100.00
21129;BME280;10722;51.910;8.352;2022-10-16T05:05:19;100466.31;;;13.20;100.00
21129;BME280;10722;51.910;8.352;2022-10-16T05:08:04;100476.72;;;13.17;100.00
21129;BME280;10722;51.910;8.352;2022-10-16T05:10:49;100468.91;;;13.17;100.00
21129;BME280;10722;51.910;8.352;2022-10-16T05:13:34;100466.31;;;13.15;100.00
21129;BME280;10722;51.910;8.352;2022-10-16T05:16:19;100462.84;;;13.13;100.00
21129;BME280;10722;51.910;8.352;2022-10-16T05:19:04;100483.63;;;13.07;100.00
21129;BME280;10722;51.910;8.352;2022-10-16T05:22:10;100487.06;;;13.06;100.00
21129;BME280;10722;51.910;8.352;2022-10-16T05:24:55;100486.19;;;13.02;100.00
21129;BME280;10722;51.910;8.352;2022-10-16T05:27:40;100488.81;;;13.04;100.00
21129;BME280;10722;51.910;8.352;2022-10-16T05:30:25;100479.28;;;13.01;100.00
21129;BME280;10722;51.910;8.352;2022-10-16T05:33:10;100476.66;;;13.00;100.00
21129;BME280;10722;51.910;8.352;2022-10-16T05:35:55;100489.63;;;12.95;100.00
21129;BME280;10722;51.910;8.352;2022-10-16T05:38:39;100484.44;;;12.98;100.00
21129;BME280;10722;51.910;8.352;2022-10-16T05:41:24;100481.84;;;12.97;100.00
21129;BME280;10722;51.910;8.352;2022-10-16T05:44:10;100495.66;;;12.94;100.00
21129;BME280;10722;51.910;8.352;2022-10-16T05:46:54;100505.22;;;12.92;100.00
21129;BME280;10722;51.910;8.352;2022-10-16T05:49:40;100513.84;;;12.90;100.00
21129;BME280;10722;51.910;8.352;2022-10-16T05:52:26;100519.84;;;12.83;100.00
21129;BME280;10722;51.910;8.352;2022-10-16T05:55:11;100532.88;;;12.87;100.00
21129;BME280;10722;51.910;8.352;2022-10-16T05:57:56;100532.88;;;12.87;100.00
21129;BME280;10722;51.910;8.352;2022-10-16T06:00:42;100520.75;;;12.89;100.00
21129;BME280;10722;51.910;8.352;2022-10-16T06:03:27;100530.25;;;12.86;100.00
21129;BME280;10722;51.910;8.352;2022-10-16T06:06:14;100534.56;;;12.84;100.00
21129;BME280;10722;51.910;8.352;2022-10-16T06:09:00;100543.22;;;12.83;100.00
21129;BME280;10722;51.910;8.352;2022-10-16T06:11:45;100543.22;;;12.81;100.00
21129;BME280;10722;51.910;8.352;2022-10-16T06:14:30;100545.81;;;12.81;100.00
21129;BME280;10722;51.910;8.352;2022-10-16T06:17:16;100548.44;;;12.84;100.00
21129;BME280;10722;51.910;8.352;2022-10-16T06:20:01;100550.19;;;12.88;100.00
21129;BME280;10722;51.910;8.352;2022-10-16T06:22:47;100546.72;;;12.89;100.00
21129;BME280;10722;51.910;8.352;2022-10-16T06:25:32;100544.13;;;12.88;100.00
21129;BME280;10722;51.910;8.352;2022-10-16T06:28:18;100547.59;;;12.94;100.00
21129;BME280;10722;51.910;8.352;2022-10-16T06:31:05;100547.63;;;12.97;100.00
21129;BME280;10722;51.910;8.352;2022-10-16T06:33:54;100550.22;;;12.97;100.00
21129;BME280;10722;51.910;8.352;2022-10-16T06:36:40;100560.63;;;13.02;100.00
21129;BME280;10722;51.910;8.352;2022-10-16T06:39:25;100552.84;;;12.99;100.00
21129;BME280;10722;51.910;8.352;2022-10-16T06:42:10;100567.56;;;13.03;100.00
21129;BME280;10722;51.910;8.352;2022-10-16T06:44:55;100571.91;;;13.07;100.00
21129;BME280;10722;51.910;8.352;2022-10-16T06:47:40;100574.50;;;13.06;100.00
21129;BME280;10722;51.910;8.352;2022-10-16T06:50:26;100566.72;;;13.07;100.00
21129;BME280;10722;51.910;8.352;2022-10-16T06:53:11;100574.53;;;13.13;100.00
21129;BME280;10722;51.910;8.352;2022-10-16T06:55:56;100581.47;;;13.13;100.00
21129;BME280;10722;51.910;8.352;2022-10-16T06:58:45;100603.09;;;13.15;100.00
21129;BME280;10722;51.910;8.352;2022-10-16T07:01:31;100591.03;;;13.23;100.00
21129;BME280;10722;51.910;8.352;2022-10-16T07:04:17;100598.03;;;13.30;100.00
21129;BME280;10722;51.910;8.352;2022-10-16T07:07:02;100598.91;;;13.34;100.00
21129;BME280;10722;51.910;8.352;2022-10-16T07:09:53;100595.44;;;13.36;100.00
21129;BME280;10722;51.910;8.352;2022-10-16T07:12:38;100598.94;;;13.38;100.00
21129;BME280;10722;51.910;8.352;2022-10-16T07:15:25;100599.84;;;13.47;100.00
21129;BME280;10722;51.910;8.352;2022-10-16T07:18:10;100601.56;;;13.54;100.00
21129;BME280;10722;51.910;8.352;2022-10-16T07:21:03;100616.31;;;13.56;100.00
21129;BME280;10722;51.910;8.352;2022-10-16T07:23:52;100618.06;;;13.59;100.00
21129;BME280;10722;51.910;8.352;2022-10-16T07:26:38;100625.03;;;13.66;100.00
21129;BME280;10722;51.910;8.352;2022-10-16T07:29:23;100633.69;;;13.68;100.00
21129;BME280;10722;51.910;8.352;2022-10-16T07:32:08;100630.25;;;13.75;100.00
21129;BME280;10722;51.910;8.352;2022-10-16T07:34:54;100637.22;;;13.88;100.00
21129;BME280;10722;51.910;8.352;2022-10-16T07:37:39;100639.84;;;13.98;100.00
21129;BME280;10722;51.910;8.352;2022-10-16T07:40:24;100634.66;;;14.02;100.00
21129;BME280;10722;51.910;8.352;2022-10-16T07:43:08;100644.19;;;14.06;100.00
21129;BME280;10722;51.910;8.352;2022-10-16T07:45:54;100663.28;;;14.05;100.00
21129;BME280;10722;51.910;8.352;2022-10-16T07:48:44;100657.19;;;14.03;100.00
21129;BME280;10722;51.910;8.352;2022-10-16T07:51:29;100662.41;;;14.08;100.00
21129;BME280;10722;51.910;8.352;2022-10-16T07:54:14;100663.28;;;14.02;100.00
21129;BME280;10722;51.910;8.352;2022-10-16T07:56:59;100670.22;;;14.06;100.00
21129;BME280;10722;51.910;8.352;2022-10-16T07:59:47;100661.53;;;14.00;100.00
21129;BME280;10722;51.910;8.352;2022-10-16T08:02:32;100671.91;;;13.94;100.00
21129;BME280;10722;51.910;8.352;2022-10-16T08:05:17;100676.28;;;14.04;100.00
21129;BME280;10722;51.910;8.352;2022-10-16T08:08:02;100671.94;;;14.06;100.00
21129;BME280;10722;51.910;8.352;2022-10-16T08:10:48;100676.31;;;14.21;100.00
21129;BME280;10722;51.910;8.352;2022-10-16T08:13:35;100681.53;;;14.31;100.00
21129;BME280;10722;51.910;8.352;2022-10-16T08:16:20;100669.38;;;14.35;100.00
21129;BME280;10722;51.910;8.352;2022-10-16T08:19:05;100671.13;;;14.50;100.00
21129;BME280;10722;51.910;8.352;2022-10-16T08:21:52;100668.59;;;14.62;100.00
21129;BME280;10722;51.910;8.352;2022-10-16T08:24:38;100680.75;;;14.75;100.00
21129;BME280;10722;51.910;8.352;2022-10-16T08:27:23;100661.63;;;14.84;100.00
21129;BME280;10722;51.910;8.352;2022-10-16T08:30:09;100672.00;;;14.95;99.93
21129;BME280;10722;51.910;8.352;2022-10-16T08:32:55;100666.78;;;15.06;98.74
21129;BME280;10722;51.910;8.352;2022-10-16T08:35:40;100678.94;;;15.11;98.62
21129;BME280;10722;51.910;8.352;2022-10-16T08:38:25;100678.06;;;15.20;97.99
21129;BME280;10722;51.910;8.352;2022-10-16T08:41:33;100675.44;;;15.31;97.84
21129;BME280;10722;51.910;8.352;2022-10-16T08:47:15;100683.19;;;15.51;96.33
21129;BME280;10722;51.910;8.352;2022-10-16T08:50:09;100681.44;;;15.53;95.88
21129;BME280;10722;51.910;8.352;2022-10-16T08:52:56;100687.50;;;15.59;95.42
21129;BME280;10722;51.910;8.352;2022-10-16T08:55:48;100678.81;;;15.59;94.30
21129;BME280;10722;51.910;8.352;2022-10-16T08:58:34;100704.81;;;15.85;95.04
21129;BME280;10722;51.910;8.352;2022-10-16T09:01:22;100704.78;;;15.88;94.55
21129;BME280;10722;51.910;8.352;2022-10-16T09:10:30;100682.19;;;15.91;91.52
21129;BME280;10722;51.910;8.352;2022-10-16T09:16:37;100703.78;;;16.20;92.03
21129;BME280;10722;51.910;8.352;2022-10-16T09:19:30;100686.41;;;16.17;91.09
21129;BME280;10722;51.910;8.352;2022-10-16T09:22:17;100714.22;;;16.23;91.78
21129;BME280;10722;51.910;8.352;2022-10-16T09:25:12;100697.69;;;16.21;89.98
21129;BME280;10722;51.910;8.352;2022-10-16T09:27:57;100687.22;;;16.24;89.46
21129;BME280;10722;51.910;8.352;2022-10-16T09:30:43;100687.16;;;16.36;89.02
21129;BME280;10722;51.910;8.352;2022-10-16T09:33:33;100681.03;;;16.35;88.30
21129;BME280;10722;51.910;8.352;2022-10-16T09:36:20;100680.09;;;16.44;88.03
21129;BME280;10722;51.910;8.352;2022-10-16T09:39:08;100657.53;;;16.42;86.78
21129;BME280;10722;51.910;8.352;2022-10-16T09:41:55;100666.09;;;16.54;86.52
21129;BME280;10722;51.910;8.352;2022-10-16T09:44:41;100685.13;;;16.73;87.04
21129;BME280;10722;51.910;8.352;2022-10-16T09:47:28;100672.09;;;16.70;85.65
21129;BME280;10722;51.910;8.352;2022-10-16T09:50:28;100642.50;;;16.70;84.45
21129;BME280;10722;51.910;8.352;2022-10-16T09:53:14;100626.75;;;16.74;82.51
21129;BME280;10722;51.910;8.352;2022-10-16T09:55:59;100618.19;;;16.60;81.07
21129;BME280;10722;51.910;8.352;2022-10-16T09:58:50;100622.41;;;16.78;80.36
21129;BME280;10722;51.910;8.352;2022-10-16T10:01:37;100637.19;;;16.82;80.70
21129;BME280;10722;51.910;8.352;2022-10-16T10:04:24;100641.44;;;16.89;80.58
21129;BME280;10722;51.910;8.352;2022-10-16T10:07:24;100631.00;;;16.92;79.61
21129;BME280;10722;51.910;8.352;2022-10-16T10:10:27;100655.09;;;17.17;80.07
21129;BME280;10722;51.910;8.352;2022-10-16T10:13:21;100643.66;;;17.28;79.02
21129;BME280;10722;51.910;8.352;2022-10-16T10:16:07;100637.41;;;17.39;78.40
21129;BME280;10722;51.910;8.352;2022-10-16T10:18:59;100610.47;;;17.34;77.24
21129;BME280;10722;51.910;8.352;2022-10-16T10:21:45;100623.44;;;17.43;76.77
21129;BME280;10722;51.910;8.352;2022-10-16T10:24:30;100608.63;;;17.42;76.13
21129;BME280;10722;51.910;8.352;2022-10-16T10:27:18;100623.44;;;17.43;75.98
21129;BME280;10722;51.910;8.352;2022-10-16T10:30:15;100618.13;;;17.50;75.39
21129;BME280;10722;51.910;8.352;2022-10-16T10:38:50;100642.78;;;17.29;75.68
21129;BME280;10722;51.910;8.352;2022-10-16T10:45:16;100658.78;;;17.01;75.85
21129;BME280;10722;51.910;8.352;2022-10-16T10:48:27;100654.41;;;17.00;75.44
21129;BME280;10722;51.910;8.352;2022-10-16T10:54:32;100696.00;;;17.23;76.25
21129;BME280;10722;51.910;8.352;2022-10-16T10:57:38;100703.72;;;17.34;76.40
21129;BME280;10722;51.910;8.352;2022-10-16T11:06:39;100692.44;;;18.06;75.27
21129;BME280;10722;51.910;8.352;2022-10-16T11:09:34;100701.16;;;18.06;75.45
21129;BME280;10722;51.910;8.352;2022-10-16T11:15:17;100701.84;;;18.78;74.02
21129;BME280;10722;51.910;8.352;2022-10-16T11:18:16;100622.63;;;18.06;71.25
21129;BME280;10722;51.910;8.352;2022-10-16T11:21:08;100675.13;;;17.96;73.07
21129;BME280;10722;51.910;8.352;2022-10-16T11:26:43;100694.50;;;17.81;73.23
21129;BME280;10722;51.910;8.352;2022-10-16T11:29:30;100707.66;;;17.73;73.81
21129;BME280;10722;51.910;8.352;2022-10-16T11:32:22;100722.44;;;17.77;74.60
21129;BME280;10722;51.910;8.352;2022-10-16T11:35:17;100659.50;;;17.89;71.67
21129;BME280;10722;51.910;8.352;2022-10-16T11:44:55;100661.94;;;18.02;70.53
21129;BME280;10722;51.910;8.352;2022-10-16T11:47:48;100693.47;;;17.92;71.52
21129;BME280;10722;51.910;8.352;2022-10-16T11:50:53;100676.16;;;17.84;71.32
21129;BME280;10722;51.910;8.352;2022-10-16T11:53:46;100714.25;;;18.06;72.41
21129;BME280;10722;51.910;8.352;2022-10-16T11:56:38;100723.72;;;18.15;72.50
21129;BME280;10722;51.910;8.352;2022-10-16T12:06:05;100696.78;;;18.07;71.03
21129;BME280;10722;51.910;8.352;2022-10-16T12:08:52;100701.72;;;18.27;71.17
21129;BME280;10722;51.910;8.352;2022-10-16T12:11:38;100718.09;;;18.41;71.03
21129;BME280;10722;51.910;8.352;2022-10-16T12:17:36;100712.66;;;18.56;70.51
21129;BME280;10722;51.910;8.352;2022-10-16T12:20:30;100711.91;;;19.04;69.10
21129;BME280;10722;51.910;8.352;2022-10-16T12:23:20;100663.19;;;18.91;67.81
21129;BME280;10722;51.910;8.352;2022-10-16T12:26:06;100705.00;;;18.98;69.15
21129;BME280;10722;51.910;8.352;2022-10-16T12:28:51;100702.22;;;19.06;68.65
21129;BME280;10722;51.910;8.352;2022-10-16T12:31:42;100724.38;;;18.88;68.87
21129;BME280;10722;51.910;8.352;2022-10-16T12:34:42;100698.81;;;18.47;68.47
21129;BME280;10722;51.910;8.352;2022-10-16T12:37:34;100709.13;;;18.59;68.60
21129;BME280;10722;51.910;8.352;2022-10-16T12:40:28;100709.22;;;18.51;68.34
21129;BME280;10722;51.910;8.352;2022-10-16T12:51:58;100689.22;;;19.91;65.25
21129;BME280;10722;51.910;8.352;2022-10-16T12:54:43;100691.13;;;20.24;64.60
21129;BME280;10722;51.910;8.352;2022-10-16T13:00:45;100665.66;;;21.32;62.16
21129;BME280;10722;51.910;8.352;2022-10-16T13:04:15;100697.03;;;21.07;62.88
21129;BME280;10722;51.910;8.352;2022-10-16T13:10:20;100748.31;;;21.23;64.34
21129;BME280;10722;51.910;8.352;2022-10-16T13:22:24;100722.09;;;22.43;60.29
21129;BME280;10722;51.910;8.352;2022-10-16T13:25:31;100700.69;;;21.65;60.23
21129;BME280;10722;51.910;8.352;2022-10-16T13:28:28;100731.81;;;21.16;61.83
21129;BME280;10722;51.910;8.352;2022-10-16T13:31:20;100695.63;;;20.57;61.79
21129;BME280;10722;51.910;8.352;2022-10-16T13:34:12;100756.06;;;19.25;65.17
21129;BME280;10722;51.910;8.352;2022-10-16T13:36:59;100812.16;;;18.58;68.51
21129;BME280;10722;51.910;8.352;2022-10-16T13:39:44;100830.00;;;18.96;68.28
21129;BME280;10722;51.910;8.352;2022-10-16T13:42:29;100806.19;;;19.10;67.72
21129;BME280;10722;51.910;8.352;2022-10-16T13:45:20;100795.91;;;18.95;67.27
21129;BME280;10722;51.910;8.352;2022-10-16T13:48:09;100833.78;;;19.33;69.38
21129;BME280;10722;51.910;8.352;2022-10-16T13:51:31;100798.53;;;19.49;66.98
21129;BME280;10722;51.910;8.352;2022-10-16T13:54:16;100814.84;;;19.66;67.06
21129;BME280;10722;51.910;8.352;2022-10-16T13:57:05;100783.59;;;19.01;67.04
21129;BME280;10722;51.910;8.352;2022-10-16T14:00:21;100805.91;;;19.25;67.29
21129;BME280;10722;51.910;8.352;2022-10-16T14:03:13;100805.53;;;19.47;66.78
21129;BME280;10722;51.910;8.352;2022-10-16T14:06:01;100769.88;;;19.37;65.12
21129;BME280;10722;51.910;8.352;2022-10-16T14:08:58;100813.00;;;19.20;67.04
21129;BME280;10722;51.910;8.352;2022-10-16T14:11:48;100823.22;;;19.37;67.36
21129;BME280;10722;51.910;8.352;2022-10-16T14:14:45;100839.41;;;19.61;67.50
21129;BME280;10722;51.910;8.352;2022-10-16T14:17:33;100832.69;;;19.46;67.07
21129;BME280;10722;51.910;8.352;2022-10-16T14:20:25;100814.38;;;19.43;66.35
21129;BME280;10722;51.910;8.352;2022-10-16T14:23:43;100850.56;;;19.74;68.15
21129;BME280;10722;51.910;8.352;2022-10-16T14:26:28;100812.41;;;20.02;66.29
21129;BME280;10722;51.910;8.352;2022-10-16T14:29:17;100809.94;;;19.93;66.23
21129;BME280;10722;51.910;8.352;2022-10-16T14:32:24;100791.59;;;19.45;66.12
21129;BME280;10722;51.910;8.352;2022-10-16T14:38:18;100814.09;;;19.06;67.09
21129;BME280;10722;51.910;8.352;2022-10-16T14:41:05;100800.75;;;19.21;66.65
21129;BME280;10722;51.910;8.352;2022-10-16T14:43:56;100803.66;;;19.02;67.02
21129;BME280;10722;51.910;8.352;2022-10-16T14:46:42;100831.91;;;19.41;68.05
21129;BME280;10722;51.910;8.352;2022-10-16T14:49:29;100827.72;;;19.79;66.97
21129;BME280;10722;51.910;8.352;2022-10-16T14:52:14;100811.63;;;19.97;66.31
21129;BME280;10722;51.910;8.352;2022-10-16T14:54:59;100813.41;;;19.95;66.37
21129;BME280;10722;51.910;8.352;2022-10-16T14:57:45;100805.25;;;19.64;66.10
21129;BME280;10722;51.910;8.352;2022-10-16T15:00:30;100818.00;;;19.85;66.08
21129;BME280;10722;51.910;8.352;2022-10-16T15:03:16;100831.88;;;19.90;67.14
21129;BME280;10722;51.910;8.352;2022-10-16T15:06:01;100802.34;;;19.30;66.50
21129;BME280;10722;51.910;8.352;2022-10-16T15:08:46;100849.09;;;19.03;69.05
21129;BME280;10722;51.910;8.352;2022-10-16T15:11:32;100866.97;;;19.34;68.96
21129;BME280;10722;51.910;8.352;2022-10-16T15:14:17;100877.72;;;19.73;69.02
21129;BME280;10722;51.910;8.352;2022-10-16T15:17:02;100836.72;;;20.13;66.09
21129;BME280;10722;51.910;8.352;2022-10-16T15:19:48;100819.91;;;20.64;65.17
21129;BME280;10722;51.910;8.352;2022-10-16T15:22:34;100791.00;;;21.34;62.16
21129;BME280;10722;51.910;8.352;2022-10-16T15:25:41;100773.66;;;21.27;61.38
21129;BME280;10722;51.910;8.352;2022-10-16T15:28:29;100783.25;;;20.56;63.04
21129;BME280;10722;51.910;8.352;2022-10-16T15:31:18;100838.69;;;20.01;65.96
21129;BME280;10722;51.910;8.352;2022-10-16T15:34:04;100882.91;;;19.76;68.27
21129;BME280;10722;51.910;8.352;2022-10-16T15:36:50;100861.91;;;19.76;67.78
21129;BME280;10722;51.910;8.352;2022-10-16T15:39:35;100893.31;;;19.27;71.11
21129;BME280;10722;51.910;8.352;2022-10-16T15:42:25;100871.41;;;19.32;70.78
21129;BME280;10722;51.910;8.352;2022-10-16T15:45:12;100861.50;;;19.47;70.01
21129;BME280;10722;51.910;8.352;2022-10-16T15:47:57;100869.59;;;19.35;70.19
21129;BME280;10722;51.910;8.352;2022-10-16T15:50:43;100888.44;;;19.04;72.07
21129;BME280;10722;51.910;8.352;2022-10-16T15:53:28;100872.22;;;18.75;72.24
21129;BME280;10722;51.910;8.352;2022-10-16T15:56:14;100891.84;;;18.45;74.00
21129;BME280;10722;51.910;8.352;2022-10-16T15:59:00;100902.31;;;18.45;74.53
21129;BME280;10722;51.910;8.352;2022-10-16T16:01:45;100900.72;;;18.31;74.86
21129;BME280;10722;51.910;8.352;2022-10-16T16:04:31;100926.59;;;17.71;76.57